createdAt,value
2018-07-16T00:02:26.416Z,92.80
2018-07-16T00:04:54.064Z,92.50
2018-07-16T00:07:21.847Z,92.10
2018-07-16T00:09:49.579Z,92.50
2018-07-16T00:12:17.370Z,92.80
2018-07-16T00:14:45.145Z,92.80
2018-07-16T00:17:12.752Z,93.00
2018-07-16T00:19:40.415Z,93.40
2018-07-16T00:22:08.151Z,93.40
2018-07-16T00:24:35.911Z,93.20
2018-07-16T00:27:03.583Z,93.60
2018-07-16T00:29:31.273Z,93.20
2018-07-16T00:31:58.899Z,93.50
2018-07-16T00:34:26.526Z,93.80
2018-07-16T00:36:54.208Z,93.70
2018-07-16T00:39:21.824Z,94.20
2018-07-16T00:41:49.526Z,94.70
2018-07-16T00:44:17.238Z,95.10
2018-07-16T00:46:44.835Z,95.30
2018-07-16T00:49:12.496Z,95.60
2018-07-16T00:51:40.168Z,95.70
2018-07-16T00:54:07.788Z,95.60
2018-07-16T00:56:35.527Z,95.10
2018-07-16T00:59:03.161Z,95.00
2018-07-16T01:01:30.845Z,95.80
2018-07-16T01:03:58.473Z,96.70
2018-07-16T01:06:26.503Z,97.00
2018-07-16T01:08:54.234Z,97.90
2018-07-16T01:11:22.019Z,98.50
2018-07-16T01:13:49.735Z,99.00
2018-07-16T01:16:17.372Z,98.70
2018-07-16T01:18:45.064Z,98.80
2018-07-16T01:21:12.754Z,98.00
2018-07-16T01:23:40.375Z,97.70
2018-07-16T01:26:08.082Z,98.10
2018-07-16T01:28:35.708Z,98.40
2018-07-16T01:31:03.345Z,99.00
2018-07-16T01:33:30.972Z,99.30
2018-07-16T01:35:58.700Z,99.50
2018-07-16T01:38:27.277Z,99.70
2018-07-16T01:40:54.963Z,99.90
2018-07-16T01:43:22.582Z,99.90
2018-07-16T01:45:50.259Z,99.90
2018-07-16T01:48:17.871Z,99.90
2018-07-16T01:50:45.524Z,99.90
2018-07-16T01:53:13.206Z,99.90
2018-07-16T01:55:40.862Z,99.90
2018-07-16T01:58:08.491Z,99.90
2018-07-16T02:00:46.212Z,99.90
2018-07-16T02:03:13.838Z,99.90
2018-07-16T02:05:41.456Z,99.90
2018-07-16T02:08:09.181Z,99.90
2018-07-16T02:10:36.807Z,99.90
2018-07-16T02:13:04.548Z,99.90
2018-07-16T02:15:32.187Z,99.90
2018-07-16T02:17:59.838Z,99.90
2018-07-16T02:20:27.504Z,99.90
2018-07-16T02:22:55.256Z,99.90
2018-07-16T02:25:22.896Z,99.90
2018-07-16T02:27:50.552Z,99.90
2018-07-16T02:30:18.151Z,99.90
2018-07-16T02:32:45.779Z,99.90
2018-07-16T02:35:13.417Z,99.90
2018-07-16T02:37:41.052Z,99.90
2018-07-16T02:40:08.746Z,99.90
2018-07-16T02:42:36.447Z,99.90
2018-07-16T02:45:04.159Z,99.90
2018-07-16T02:47:31.796Z,99.90
2018-07-16T02:49:59.470Z,99.90
2018-07-16T02:52:27.164Z,99.90
2018-07-16T02:54:55.709Z,99.90
2018-07-16T02:57:23.450Z,99.90
2018-07-16T02:59:51.215Z,99.90
2018-07-16T03:02:18.975Z,99.90
2018-07-16T03:04:46.596Z,99.90
2018-07-16T03:07:14.284Z,99.90
2018-07-16T03:09:41.956Z,99.90
2018-07-16T03:12:09.621Z,99.90
2018-07-16T03:14:37.238Z,99.90
2018-07-16T03:17:05.068Z,99.90
2018-07-16T03:19:32.748Z,99.90
2018-07-16T03:22:00.400Z,99.90
2018-07-16T03:24:28.058Z,99.90
2018-07-16T03:26:55.864Z,99.90
2018-07-16T03:29:23.506Z,99.90
2018-07-16T03:31:51.452Z,99.90
2018-07-16T03:34:19.102Z,99.90
2018-07-16T03:36:46.751Z,99.90
2018-07-16T03:39:14.422Z,99.90
2018-07-16T03:41:42.043Z,99.90
2018-07-16T03:44:09.704Z,99.90
2018-07-16T03:46:37.424Z,99.90
2018-07-16T03:49:05.031Z,99.90
2018-07-16T03:51:32.763Z,99.90
2018-07-16T03:54:00.403Z,99.90
2018-07-16T03:56:28.827Z,99.90
2018-07-16T03:58:56.512Z,99.90
2018-07-16T04:01:24.159Z,99.90
2018-07-16T04:03:51.819Z,99.90
2018-07-16T04:06:19.429Z,99.90
2018-07-16T04:08:47.051Z,99.90
2018-07-16T04:11:14.709Z,99.90
2018-07-16T04:13:42.345Z,99.90
2018-07-16T04:16:09.988Z,99.90
2018-07-16T04:18:37.641Z,99.90
2018-07-16T04:21:05.291Z,99.90
2018-07-16T04:23:32.949Z,99.90
2018-07-16T04:26:00.542Z,99.90
2018-07-16T04:28:28.168Z,99.90
2018-07-16T04:30:55.840Z,99.90
2018-07-16T04:33:23.435Z,99.90
2018-07-16T04:35:51.083Z,99.90
2018-07-16T04:38:18.725Z,99.60
2018-07-16T04:40:46.335Z,99.30
2018-07-16T04:43:14.014Z,99.30
2018-07-16T04:45:41.728Z,99.20
2018-07-16T04:48:09.506Z,99.20
2018-07-16T04:50:37.208Z,99.00
2018-07-16T04:53:04.872Z,98.10
2018-07-16T04:55:32.540Z,97.40
2018-07-16T04:58:00.155Z,96.30
2018-07-16T05:00:27.871Z,95.00
2018-07-16T05:02:55.511Z,94.40
2018-07-16T05:05:23.129Z,94.10
2018-07-16T05:07:50.748Z,94.10
2018-07-16T05:10:18.379Z,94.60
2018-07-16T05:12:46.064Z,94.80
2018-07-16T05:15:13.724Z,95.40
2018-07-16T05:17:41.431Z,95.60
2018-07-16T05:20:09.314Z,95.10
2018-07-16T05:22:36.971Z,95.30
2018-07-16T05:25:04.662Z,95.40
2018-07-16T05:27:32.264Z,96.30
2018-07-16T05:29:59.935Z,96.10
2018-07-16T05:32:27.795Z,96.10
2018-07-16T05:34:55.274Z,96.40
2018-07-16T05:37:22.974Z,97.20
2018-07-16T05:39:50.677Z,97.40
2018-07-16T05:42:18.329Z,98.00
2018-07-16T05:44:45.970Z,98.40
2018-07-16T05:47:13.877Z,98.90
2018-07-16T05:49:41.523Z,99.40
2018-07-16T05:52:09.329Z,99.40
2018-07-16T05:54:36.958Z,98.80
2018-07-16T05:57:04.672Z,98.50
2018-07-16T05:59:32.313Z,98.20
2018-07-16T06:01:59.951Z,97.30
2018-07-16T06:04:27.652Z,94.60
2018-07-16T06:06:55.294Z,93.70
2018-07-16T06:09:22.923Z,93.80
2018-07-16T06:11:50.704Z,94.40
2018-07-16T06:14:18.324Z,94.70
2018-07-16T06:16:46.018Z,97.50
2018-07-16T06:19:13.620Z,97.10
2018-07-16T06:21:41.255Z,98.00
2018-07-16T06:24:08.931Z,97.80
2018-07-16T06:26:36.768Z,96.50
2018-07-16T06:29:04.511Z,96.00
2018-07-16T06:31:32.212Z,92.40
2018-07-16T06:33:59.861Z,78.00
2018-07-16T06:36:27.592Z,65.20
2018-07-16T06:38:55.614Z,67.50
2018-07-16T06:41:23.739Z,58.20
2018-07-16T06:43:51.194Z,53.60
2018-07-16T06:46:19.745Z,56.90
2018-07-16T06:48:47.419Z,62.50
2018-07-16T06:51:15.231Z,62.80
2018-07-16T06:53:42.895Z,62.50
2018-07-16T06:56:10.623Z,65.60
2018-07-16T06:58:38.337Z,69.10
2018-07-16T07:01:05.995Z,71.10
2018-07-16T07:03:34.611Z,73.20
2018-07-16T07:06:02.284Z,74.00
2018-07-16T07:08:29.908Z,76.10
2018-07-16T07:10:57.791Z,75.70
2018-07-16T07:13:25.458Z,74.40
2018-07-16T07:15:53.105Z,71.10
2018-07-16T07:18:20.778Z,71.70
2018-07-16T07:20:48.441Z,71.50
2018-07-16T07:23:16.131Z,72.30
2018-07-16T07:25:43.820Z,76.40
2018-07-16T07:28:11.459Z,78.20
2018-07-16T07:30:39.127Z,76.10
2018-07-16T07:33:06.856Z,65.60
2018-07-16T07:35:34.679Z,63.80
2018-07-16T07:38:02.293Z,68.10
2018-07-16T07:40:29.974Z,71.10
2018-07-16T07:42:57.624Z,72.60
2018-07-16T07:45:25.286Z,73.30
2018-07-16T07:47:52.933Z,73.30
2018-07-16T07:50:20.624Z,72.10
2018-07-16T07:52:48.351Z,71.90
2018-07-16T07:55:16.222Z,69.30
2018-07-16T07:57:43.639Z,69.60
2018-07-16T08:00:12.903Z,67.30
2018-07-16T08:02:40.763Z,67.50
2018-07-16T08:05:08.576Z,64.80
2018-07-16T08:07:36.235Z,61.50
2018-07-16T08:10:04.001Z,63.30
2018-07-16T08:12:31.751Z,62.60
2018-07-16T08:14:59.465Z,64.30
2018-07-16T08:17:27.166Z,67.80
2018-07-16T08:19:54.875Z,67.40
2018-07-16T08:22:22.532Z,66.30
2018-07-16T08:24:50.266Z,68.50
2018-07-16T08:27:18.998Z,68.40
2018-07-16T08:29:48.269Z,66.50
2018-07-16T08:32:17.385Z,66.80
2018-07-16T08:34:46.344Z,66.00
2018-07-16T08:37:16.134Z,65.10
2018-07-16T08:39:44.713Z,63.10
2018-07-16T08:42:14.344Z,63.30
2018-07-16T08:44:43.337Z,63.20
2018-07-16T08:47:11.019Z,63.50
2018-07-16T08:49:38.787Z,61.90
2018-07-16T08:52:06.431Z,62.10
2018-07-16T08:54:34.055Z,60.90
2018-07-16T08:57:01.658Z,62.40
2018-07-16T08:59:29.277Z,63.30
2018-07-16T09:01:56.927Z,63.10
2018-07-16T09:04:24.572Z,63.40
2018-07-16T09:06:52.215Z,63.00
2018-07-16T09:09:19.829Z,63.10
2018-07-16T09:11:47.487Z,63.50
2018-07-16T09:14:15.123Z,64.10
2018-07-16T09:16:42.818Z,62.30
2018-07-16T09:19:10.426Z,62.30
2018-07-16T09:21:38.044Z,62.70
2018-07-16T09:24:05.676Z,62.60
2018-07-16T09:26:33.296Z,63.80
2018-07-16T09:29:00.976Z,64.00
2018-07-16T09:31:28.604Z,61.50
2018-07-16T09:33:56.502Z,62.40
2018-07-16T09:36:24.133Z,65.00
2018-07-16T09:38:51.807Z,63.50
2018-07-16T09:41:19.428Z,65.10
2018-07-16T09:43:47.090Z,65.40
2018-07-16T09:46:14.752Z,66.30
2018-07-16T09:48:42.380Z,65.40
2018-07-16T09:51:10.041Z,64.10
2018-07-16T09:53:37.660Z,65.30
2018-07-16T09:56:05.771Z,67.50
2018-07-16T09:58:33.405Z,66.20
2018-07-16T10:01:06.667Z,69.20
2018-07-16T10:03:34.311Z,72.50
2018-07-16T10:06:01.947Z,86.60
2018-07-16T10:08:29.599Z,72.20
2018-07-16T10:10:57.196Z,72.50
2018-07-16T10:13:24.795Z,70.90
2018-07-16T10:15:52.431Z,73.70
2018-07-16T10:18:20.164Z,67.90
2018-07-16T10:20:47.860Z,66.50
2018-07-16T10:23:15.508Z,74.00
2018-07-16T10:25:43.179Z,73.80
2018-07-16T10:28:10.801Z,66.20
2018-07-16T10:30:38.428Z,70.00
2018-07-16T10:33:06.028Z,70.80
2018-07-16T10:35:33.829Z,69.40
2018-07-16T10:38:01.435Z,67.10
2018-07-16T10:40:29.123Z,68.90
2018-07-16T10:42:56.752Z,64.30
2018-07-16T10:45:24.406Z,65.90
2018-07-16T10:47:52.037Z,67.30
2018-07-16T10:50:19.638Z,69.90
2018-07-16T10:52:47.883Z,63.50
2018-07-16T10:55:15.713Z,64.40
2018-07-16T10:57:43.363Z,61.70
2018-07-16T11:00:11.076Z,64.60
2018-07-16T11:02:38.732Z,64.60
2018-07-16T11:05:06.426Z,65.90
2018-07-16T11:07:34.040Z,67.10
2018-07-16T11:10:01.685Z,66.60
2018-07-16T11:12:29.522Z,67.10
2018-07-16T11:14:57.198Z,67.60
2018-07-16T11:17:24.832Z,68.50
2018-07-16T11:19:52.419Z,69.50
2018-07-16T11:22:20.065Z,66.20
2018-07-16T11:24:47.679Z,67.20
2018-07-16T11:27:15.331Z,69.50
2018-07-16T11:29:42.951Z,66.90
2018-07-16T11:32:10.567Z,66.70
2018-07-16T11:34:38.255Z,70.10
2018-07-16T11:37:06.098Z,68.40
2018-07-16T11:39:33.764Z,68.20
2018-07-16T11:42:01.425Z,66.20
2018-07-16T11:44:29.732Z,65.90
2018-07-16T11:46:57.448Z,64.00
2018-07-16T11:49:25.192Z,62.60
2018-07-16T11:51:52.808Z,63.20
2018-07-16T11:54:20.461Z,63.80
2018-07-16T11:56:48.118Z,64.00
2018-07-16T11:59:15.771Z,60.70
2018-07-16T12:01:43.465Z,61.50
2018-07-16T12:04:11.121Z,62.20
2018-07-16T12:06:38.797Z,60.70
2018-07-16T12:09:06.752Z,60.50
2018-07-16T12:11:34.371Z,66.10
2018-07-16T12:14:02.075Z,64.20
2018-07-16T12:16:29.726Z,66.80
2018-07-16T12:18:57.517Z,70.30
2018-07-16T12:21:25.354Z,65.20
2018-07-16T12:23:53.012Z,61.20
2018-07-16T12:26:20.613Z,63.40
2018-07-16T12:28:48.216Z,59.90
2018-07-16T12:31:15.843Z,62.70
2018-07-16T12:33:43.506Z,57.20
2018-07-16T12:36:11.148Z,58.60
2018-07-16T12:38:38.786Z,58.30
2018-07-16T12:41:06.439Z,58.00
2018-07-16T12:43:34.148Z,58.10
2018-07-16T12:46:01.791Z,57.70
2018-07-16T12:48:29.411Z,58.20
2018-07-16T12:50:56.998Z,58.80
2018-07-16T12:53:24.607Z,58.00
2018-07-16T12:55:52.258Z,56.80
2018-07-16T12:58:19.895Z,56.10
2018-07-16T13:00:47.571Z,55.40
2018-07-16T13:03:15.160Z,55.00
2018-07-16T13:05:42.804Z,55.50
2018-07-16T13:08:10.423Z,55.30
2018-07-16T13:10:38.039Z,56.20
2018-07-16T13:13:05.667Z,55.30
2018-07-16T13:15:33.265Z,55.60
2018-07-16T13:18:00.863Z,55.90
2018-07-16T13:20:28.494Z,55.80
2018-07-16T13:22:56.108Z,55.60
2018-07-16T13:25:23.733Z,55.70
2018-07-16T13:27:51.531Z,55.70
2018-07-16T13:30:19.141Z,54.30
2018-07-16T13:32:46.767Z,54.80
2018-07-16T13:35:15.375Z,54.70
2018-07-16T13:37:43.087Z,54.70
2018-07-16T13:40:10.675Z,55.50
2018-07-16T13:42:38.502Z,55.80
2018-07-16T13:45:06.284Z,55.00
2018-07-16T13:47:33.994Z,55.70
2018-07-16T13:50:01.658Z,55.10
2018-07-16T13:52:29.331Z,55.40
2018-07-16T13:54:57.132Z,54.30
2018-07-16T13:57:24.828Z,54.60
2018-07-16T13:59:52.520Z,54.30
2018-07-16T14:02:20.316Z,55.00
2018-07-16T14:04:47.965Z,54.90
2018-07-16T14:07:15.828Z,53.80
2018-07-16T14:09:43.510Z,52.80
2018-07-16T14:12:11.359Z,51.20
2018-07-16T14:14:39.055Z,51.90
2018-07-16T14:17:06.823Z,51.90
2018-07-16T14:19:34.645Z,52.10
2018-07-16T14:22:02.399Z,51.50
2018-07-16T14:24:30.138Z,52.70
2018-07-16T14:26:58.022Z,51.70
2018-07-16T14:29:25.785Z,54.90
2018-07-16T14:31:53.527Z,54.80
2018-07-16T14:34:21.237Z,54.40
2018-07-16T14:36:48.944Z,54.90
2018-07-16T14:39:16.717Z,58.10
2018-07-16T14:41:44.452Z,56.20
2018-07-16T14:44:12.218Z,54.20
2018-07-16T14:46:40.043Z,57.00
2018-07-16T14:49:07.847Z,54.60
2018-07-16T14:51:35.560Z,56.20
2018-07-16T14:54:03.286Z,55.40
2018-07-16T14:56:30.984Z,57.50
2018-07-16T14:58:58.718Z,57.40
2018-07-16T15:01:26.418Z,56.90
2018-07-16T15:03:54.098Z,55.20
2018-07-16T15:06:22.514Z,54.60
2018-07-16T15:08:51.032Z,54.40
2018-07-16T15:11:18.770Z,55.70
2018-07-16T15:13:46.684Z,57.10
2018-07-16T15:16:14.364Z,55.50
2018-07-16T15:18:42.151Z,54.50
2018-07-16T15:21:10.030Z,56.10
2018-07-16T15:23:37.621Z,54.00
2018-07-16T15:26:05.699Z,53.80
2018-07-16T15:28:33.554Z,53.10
2018-07-16T15:31:01.588Z,53.80
2018-07-16T15:33:29.295Z,53.80
2018-07-16T15:35:57.096Z,54.20
2018-07-16T15:38:24.870Z,53.40
2018-07-16T15:40:52.655Z,53.50
2018-07-16T15:43:20.681Z,53.80
2018-07-16T15:45:48.709Z,53.80
2018-07-16T15:48:16.714Z,54.80
2018-07-16T15:50:44.681Z,54.40
2018-07-16T15:53:12.485Z,53.80
2018-07-16T15:55:40.427Z,58.50
2018-07-16T15:58:08.251Z,60.90
2018-07-16T16:00:35.951Z,57.80
2018-07-16T16:03:03.808Z,60.90
2018-07-16T16:05:31.713Z,57.20
2018-07-16T16:07:59.597Z,58.60
2018-07-16T16:10:27.406Z,57.70
2018-07-16T16:12:55.386Z,64.90
2018-07-16T16:15:23.128Z,58.80
2018-07-16T16:17:50.876Z,60.40
2018-07-16T16:20:18.612Z,55.70
2018-07-16T16:22:46.319Z,57.30
2018-07-16T16:25:14.120Z,57.00
2018-07-16T16:27:41.934Z,56.90
2018-07-16T16:30:09.654Z,60.20
2018-07-16T16:32:37.479Z,64.30
2018-07-16T16:35:05.254Z,53.90
2018-07-16T16:37:33.015Z,53.90
2018-07-16T16:40:00.680Z,52.80
2018-07-16T16:42:28.402Z,56.40
2018-07-16T16:44:56.149Z,56.10
2018-07-16T16:47:23.968Z,51.80
2018-07-16T16:49:51.743Z,52.30
2018-07-16T16:52:20.939Z,52.20
2018-07-16T16:54:48.785Z,53.00
2018-07-16T16:57:16.545Z,52.30
2018-07-16T16:59:44.336Z,52.60
2018-07-16T17:02:12.092Z,52.70
2018-07-16T17:04:39.835Z,52.80
2018-07-16T17:07:07.619Z,53.40
2018-07-16T17:09:35.405Z,53.30
2018-07-16T17:12:03.223Z,53.70
2018-07-16T17:14:31.116Z,52.70
2018-07-16T17:16:58.938Z,54.50
2018-07-16T17:19:26.693Z,52.80
2018-07-16T17:21:54.416Z,52.70
2018-07-16T17:24:22.150Z,52.80
2018-07-16T17:26:49.835Z,51.90
2018-07-16T17:29:17.632Z,53.50
2018-07-16T17:31:45.375Z,52.40
2018-07-16T17:34:13.202Z,52.50
2018-07-16T17:36:40.924Z,53.00
2018-07-16T17:39:09.183Z,52.50
2018-07-16T17:41:36.980Z,53.00
2018-07-16T17:44:04.928Z,55.30
2018-07-16T17:46:32.783Z,52.60
2018-07-16T17:49:00.507Z,52.90
2018-07-16T17:51:28.388Z,53.40
2018-07-16T17:53:56.092Z,53.90
2018-07-16T17:56:23.867Z,53.80
2018-07-16T17:58:51.729Z,52.50
2018-07-16T18:01:19.720Z,53.90
2018-07-16T18:03:47.286Z,54.20
2018-07-16T18:06:15.107Z,52.30
2018-07-16T18:08:42.942Z,54.80
2018-07-16T18:11:10.833Z,52.70
2018-07-16T18:13:38.588Z,52.50
2018-07-16T18:16:06.385Z,54.30
2018-07-16T18:18:34.143Z,53.50
2018-07-16T18:21:01.902Z,55.00
2018-07-16T18:23:29.627Z,52.60
2018-07-16T18:25:57.320Z,52.80
2018-07-16T18:28:25.069Z,54.30
2018-07-16T18:30:52.819Z,54.20
2018-07-16T18:33:20.786Z,54.50
2018-07-16T18:35:48.647Z,57.40
2018-07-16T18:38:16.632Z,58.90
2018-07-16T18:40:44.545Z,59.80
2018-07-16T18:43:13.052Z,60.60
2018-07-16T18:45:40.966Z,61.30
2018-07-16T18:48:08.748Z,69.60
2018-07-16T18:50:36.536Z,65.30
2018-07-16T18:53:04.302Z,67.00
2018-07-16T18:55:32.065Z,70.70
2018-07-16T18:57:59.918Z,74.60
2018-07-16T19:00:27.919Z,73.00
2018-07-16T19:02:55.744Z,72.90
2018-07-16T19:05:23.764Z,68.40
2018-07-16T19:07:51.630Z,69.50
2018-07-16T19:10:19.411Z,69.50
2018-07-16T19:12:47.166Z,70.60
2018-07-16T19:15:29.450Z,72.40
2018-07-16T19:17:57.793Z,72.60
2018-07-16T19:20:26.494Z,73.20
2018-07-16T19:22:54.275Z,73.80
2018-07-16T19:25:22.081Z,74.50
2018-07-16T19:27:50.116Z,74.80
2018-07-16T19:30:17.997Z,75.30
2018-07-16T19:32:45.918Z,74.90
2018-07-16T19:35:13.839Z,76.00
2018-07-16T19:37:41.543Z,76.70
2018-07-16T19:40:09.480Z,77.80
2018-07-16T19:42:37.728Z,77.90
2018-07-16T19:45:05.849Z,78.20
2018-07-16T19:47:33.631Z,83.90
2018-07-16T19:50:01.414Z,81.90
2018-07-16T19:52:29.154Z,81.60
2018-07-16T19:54:56.965Z,81.20
2018-07-16T19:57:24.781Z,81.20
2018-07-16T19:59:52.606Z,81.60
2018-07-16T20:02:21.300Z,81.80
2018-07-16T20:04:49.042Z,81.70
2018-07-16T20:07:16.922Z,81.40
2018-07-16T20:09:44.699Z,82.00
2018-07-16T20:12:30.760Z,82.30
2018-07-16T20:14:59.576Z,82.40
2018-07-16T20:17:27.308Z,83.00
2018-07-16T20:19:55.361Z,84.10
2018-07-16T20:22:23.170Z,83.40
2018-07-16T20:24:50.964Z,83.30
2018-07-16T20:27:18.841Z,84.10
2018-07-16T20:29:46.598Z,83.80
2018-07-16T20:32:14.338Z,84.20
2018-07-16T20:34:41.940Z,84.60
2018-07-16T20:37:09.733Z,84.40
2018-07-16T20:39:37.599Z,84.90
2018-07-16T20:42:05.275Z,85.00
2018-07-16T20:44:32.947Z,85.90
2018-07-16T20:47:00.557Z,87.20
2018-07-16T20:49:28.393Z,87.30
2018-07-16T20:51:56.240Z,87.70
2018-07-16T20:54:23.883Z,86.20
2018-07-16T20:56:51.563Z,89.50
2018-07-16T20:59:19.328Z,88.20
2018-07-16T21:01:47.092Z,87.30
2018-07-16T21:04:14.770Z,88.70
2018-07-16T21:06:42.441Z,89.60
2018-07-16T21:09:10.341Z,89.20
2018-07-16T21:11:38.230Z,90.00
2018-07-16T21:14:06.197Z,89.70
2018-07-16T21:16:33.850Z,89.80
2018-07-16T21:19:01.468Z,90.30
2018-07-16T21:21:29.339Z,90.00
2018-07-16T21:23:56.947Z,89.40
2018-07-16T21:26:24.610Z,90.20
2018-07-16T21:28:52.224Z,90.10
2018-07-16T21:31:19.906Z,89.40
2018-07-16T21:33:47.547Z,89.50
2018-07-16T21:36:15.359Z,89.80
2018-07-16T21:38:43.008Z,89.80
2018-07-16T21:41:10.711Z,90.00
2018-07-16T21:43:38.330Z,89.40
2018-07-16T21:46:06.059Z,90.00
2018-07-16T21:48:33.762Z,90.20
2018-07-16T21:51:01.376Z,90.40
2018-07-16T21:53:29.012Z,90.20
2018-07-16T21:55:56.835Z,90.20
2018-07-16T21:58:24.525Z,90.30
2018-07-16T22:00:52.247Z,90.20
2018-07-16T22:03:19.839Z,90.70
2018-07-16T22:05:47.519Z,90.10
2018-07-16T22:08:15.149Z,89.60
2018-07-16T22:10:42.955Z,89.20
2018-07-16T22:13:10.700Z,89.30
2018-07-16T22:15:38.373Z,90.00
2018-07-16T22:18:06.455Z,89.90
2018-07-16T22:20:34.111Z,90.00
2018-07-16T22:23:01.959Z,90.50
2018-07-16T22:25:29.790Z,90.10
2018-07-16T22:27:57.487Z,90.10
2018-07-16T22:30:25.194Z,90.60
2018-07-16T22:32:52.799Z,90.90
2018-07-16T22:35:20.571Z,91.10
2018-07-16T22:37:48.174Z,91.30
2018-07-16T22:40:15.829Z,91.20
2018-07-16T22:42:43.630Z,90.90
2018-07-16T22:45:11.264Z,90.90
2018-07-16T22:47:38.929Z,90.90
2018-07-16T22:50:06.702Z,90.70
2018-07-16T22:52:34.327Z,90.80
2018-07-16T22:55:01.971Z,91.00
2018-07-16T22:57:29.655Z,90.70
2018-07-16T22:59:57.404Z,90.50
2018-07-16T23:02:25.034Z,90.80
2018-07-16T23:04:52.714Z,91.20
2018-07-16T23:07:20.328Z,91.70
2018-07-16T23:09:48.041Z,91.80
2018-07-16T23:12:15.727Z,91.90
2018-07-16T23:14:43.364Z,91.80
2018-07-16T23:17:10.985Z,91.30
2018-07-16T23:19:38.586Z,91.40
2018-07-16T23:22:06.365Z,91.60
2018-07-16T23:24:34.015Z,91.80
2018-07-16T23:27:01.673Z,91.70
2018-07-16T23:29:29.433Z,91.80
2018-07-16T23:31:57.035Z,92.00
2018-07-16T23:34:24.651Z,92.20
2018-07-16T23:36:52.283Z,92.40
2018-07-16T23:39:19.887Z,92.50
2018-07-16T23:41:47.515Z,92.50
2018-07-16T23:44:15.207Z,92.70
2018-07-16T23:46:42.839Z,92.90
2018-07-16T23:49:10.705Z,93.00
2018-07-16T23:51:47.873Z,92.90
2018-07-16T23:54:15.559Z,93.10
2018-07-16T23:56:43.275Z,92.60
2018-07-16T23:59:10.978Z,92.70
